Aeroporto :
LOGIN :

Iscrizione | Disclaimer

   EN    FR    IT 

 










Sommario :    VFR   VFR Marginale   IFR   IFR Intensivo   IFR Molto Intensivo
Visibilità : 
Base nubi : 
>= 8 km
>= 3000ft
5 / 8 km
1000 / 3000 ft
1500m / 5 km
500 / 1000 ft
800 / 1500m
200 / 500 ft
< 800m
< 200 ft
Simboli :   Temporali  Nebbia  Neve Forte  Precipitazioni Forti  Vento > 20 kt
SIGMETs :   Varie  Temporali  Ghiacco  Turbolenza  Onda orograficha  Ceneri Vulcaniche






- Altitudine del aeroporto : 324 ft
- Codice IATA : KVB


ESGR - Skovde

ULTIMO METAR :
  • 061750Z AUTO 18007KT 6000 -DZ OVC005/// 07/07 Q0990 REDZ

METARs OBSOLETI :
  • 061720Z AUTO 18007KT 4700 BR FEW005/// SCT008/// BKN010/// 07/07 Q0990
  • 061650Z AUTO 18007KT 5000 DZ FEW005/// SCT009/// BKN017/// 07/07 Q0990
  • 061620Z AUTO 20009KT 9999 DZ BKN010/// OVC013/// 07/07 Q0990 REUP
  • 061550Z AUTO 21009KT 9999 BKN011/// OVC014/// 08/07 Q0991
  • 061520Z AUTO 21010KT 9999 OVC016/// 08/06 Q0991

TAF N/A



MetMap, La meteo Aeronautica in un colpo d'occhio ! - Copyright ORBIFLY Dicembre 2007 - Disclaimer

ORBIFLY MET'MAP TEAM :

Programmazione e sviluppo : Alexandra Zaïnal
Concezione : Baudouin d'Aumeries
Aiuto per la programmazione : Marc-Olivier Méhu
Supporto tecnico e logistico : Manuel Goepfert
Aiuto per la traduzione : Arnaldo La Scala

Contatto : metmap@orbifly.com




FONTI E CREDITI :

   NOAA